Terminal Aerodrome Forecast
Issued by NWS

Home | Current Version | Previous Version | Text Only | Print | Product List | Glossary On
Versions: 1 2 3 4 5 6 7 8 9 10 11 12 13 14 15 16 17 18 19 20 21 22 23
000
FTUS43 KDLH 192300 RRA
TAFHYR
TAF
KHYR 192340Z 2000/2024 19008KT P6SM -RA OVC035
     FM200100 19004KT 5SM BR SCT010 BKN035
      TEMPO 2002/2006 3SM BR BKN010
     FM200600 20004KT 3SM BR BKN008
      TEMPO 2007/2011 1SM BR BKN005
     FM201400 27005KT P6SM BKN015
     FM201900 26006KT P6SM SCT035
     FM202300 26006KT P6SM VCTS BKN040CB=

USA.gov is the U.S. government's official web portal to all federal, state and local government web resources and services.